Terminal Aerodrome Forecast
Issued by NWS

Current Version | Previous Version | Text Only | Print | Product List | Glossary On
Versions: 1 2 3 4 5 6 7 8 9 10 11 12 13 14 15 16 17 18 19
000
FTUS44 KHGX 231720
TAFSGR
TAF
KSGR 231720Z 2318/2418 17010KT P6SM SCT030
     FM240100 16008KT P6SM FEW040
     FM241000 18006KT P6SM BKN009
     FM241300 19008KT P6SM BKN015=

USA.gov is the U.S. government's official web portal to all federal, state and local government web resources and services.